Date,TemperatureHighF,TemperatureAvgF,TemperatureLowF,DewpointHighF,DewpointAvgF,DewpointLowF,HumidityHigh,HumidityAvg,HumidityLow,PressureMaxIn,PressureMinIn,WindSpeedMaxMPH,WindSpeedAvgMPH,GustSpeedMaxMPH,PrecipitationSumIn
2014-1-1,69,48,36,60,42,30,82,79,74,30.04,29.98,4,1,5,0.00
2014-1-2,80,63,37,70,56,31,89,78,72,30.04,29.93,14,3,21,0.00
2014-1-3,84,61,40,69,51,35,82,71,60,29.95,29.81,13,2,18,0.00
2014-1-4,75,56,43,63,47,36,75,72,66,29.92,29.83,8,2,9,0.00
2014-1-5,64,48,37,57,41,31,88,78,72,30.04,29.91,4,1,6,0.00
2014-1-6,77,52,30,68,46,24,85,79,73,30.13,29.99,12,2,17,0.00
2014-1-7,79,56,36,65,48,31,86,76,66,30.04,29.90,11,3,17,0.00
2014-1-8,73,55,40,58,46,33,79,70,62,29.99,29.90,15,3,18,0.00
2014-1-9,71,50,35,50,36,22,72,58,49,29.96,29.83,12,2,20,0.00
2014-1-10,70,52,33,48,35,22,66,54,39,30.03,29.90,14,2,17,0.00
2014-1-11,77,56,35,58,41,24,66,57,51,30.08,29.93,8,2,11,0.00
2014-1-12,72,56,39,56,43,27,69,61,55,30.06,29.88,18,4,23,0.00
2014-1-13,50,46,42,37,34,30,65,62,59,30.08,30.06,5,2,7,0.00
2014-1-14,75,54,32,59,44,25,79,71,63,30.19,30.08,9,2,12,0.00
2014-1-15,76,55,34,60,44,25,77,67,58,30.17,30.04,11,2,17,0.00
2014-1-16,46,43,40,36,33,28,71,69,63,30.05,30.03,4,1,5,0.00
2014-1-17,85,61,33,60,43,21,66,52,42,30.07,29.95,7,2,11,0.00
2014-1-18,85,59,37,62,43,25,65,57,47,30.03,29.93,8,2,11,0.00
2014-1-19,84,62,41,63,47,30,66,58,49,30.07,29.96,7,2,10,0.00
2014-1-20,84,57,40,66,45,30,68,63,49,30.10,29.99,10,2,13,0.00
2014-1-21,81,63,38,61,49,29,73,60,52,30.10,29.96,15,3,24,0.00
2014-1-22,82,62,47,62,47,35,66,59,50,29.97,29.78,12,2,18,0.00
2014-1-23,81,58,38,54,40,22,66,51,31,30.06,29.81,7,2,8,0.00
2014-1-24,69,60,48,52,40,15,59,49,22,30.18,30.06,23,5,28,0.00
2014-1-25,59,58,56,44,43,36,60,59,56,30.11,30.09,4,1,5,0.00
2014-1-26,71,58,43,55,44,32,71,58,50,30.00,29.86,11,3,16,0.00
2014-1-27,75,61,46,53,44,31,63,55,48,29.93,29.83,14,4,19,0.00
2014-1-28,80,56,38,60,42,27,71,60,51,29.99,29.88,14,3,17,0.00
2014-1-29,80,57,38,59,43,26,68,60,50,29.99,29.85,10,2,15,0.00
2014-1-30,87,64,44,65,48,33,65,57,47,29.87,29.73,14,3,20,0.00
2014-1-31,75,64,57,56,48,43,60,57,53,29.79,29.69,20,6,27,0.00